Time;durP1;ratioP1;P1;durP2;ratioP2;P2;SDS_P1;SDS_P2;PMS_P1;PMS_P2;Temp;Humidity;BMP_temperature;BMP_pressure;BME280_temperature;BME280_humidity;BME280_pressure;Samples;Min_cycle;Max_cycle;Signal;HPM_P1;HPM_P2
2023/07/04 00:00:35;;;;;;;16.55;3.25;;;;;;;-143.48;100.00;118439.88;5093482;28;20112;-67
2023/07/04 00:03:01;;;;;;;23.77;3.35;;;;;;;-143.48;100.00;118439.88;5075351;28;20110;-68
2023/07/04 00:05:26;;;;;;;16.05;3.33;;;;;;;-143.48;100.00;118439.88;5075443;28;20054;-67
2023/07/04 00:07:52;;;;;;;28.67;3.70;;;;;;;-143.48;100.00;118439.88;5093303;28;20048;-68
2023/07/04 00:10:18;;;;;;;15.05;3.58;;;;;;;-143.48;100.00;118439.88;5093527;28;20098;-68
2023/07/04 00:12:43;;;;;;;15.80;3.28;;;;;;;-143.48;100.00;118439.88;5093446;28;20030;-68
2023/07/04 00:15:09;;;;;;;16.83;3.53;;;;;;;-143.48;100.00;118439.88;5093369;28;20475;-67
2023/07/04 00:17:35;;;;;;;19.33;3.40;;;;;;;-143.48;100.00;118439.88;5093363;28;20432;-67
2023/07/04 00:20:00;;;;;;;14.23;3.33;;;;;;;-143.48;100.00;118439.88;5093274;28;20030;-68
2023/07/04 00:22:26;;;;;;;20.50;3.97;;;;;;;-143.48;100.00;118439.88;5093158;28;20517;-68
2023/07/04 00:24:51;;;;;;;13.82;3.38;;;;;;;-143.48;100.00;118439.88;5093219;28;20106;-68
2023/07/04 00:27:16;;;;;;;12.43;2.97;;;;;;;-143.48;100.00;118439.88;5093181;28;20050;-68
2023/07/04 00:29:42;;;;;;;15.27;3.22;;;;;;;-143.48;100.00;118439.88;5093245;28;20027;-68
2023/07/04 00:32:08;;;;;;;10.57;2.67;;;;;;;-143.48;100.00;118439.88;5093315;28;20016;-68
2023/07/04 00:34:34;;;;;;;12.05;3.10;;;;;;;-143.48;100.00;118439.88;5093223;28;20035;-67
2023/07/04 00:37:01;;;;;;;17.67;3.45;;;;;;;-143.48;100.00;118439.88;5093053;28;20422;-68
2023/07/04 00:39:27;;;;;;;15.43;3.55;;;;;;;-143.48;100.00;118439.88;5093184;28;20028;-68
2023/07/04 00:41:54;;;;;;;16.60;3.10;;;;;;;-143.48;100.00;118439.88;5093064;28;20060;-68
2023/07/04 00:44:30;;;;;;;16.95;3.25;;;;;;;-143.48;100.00;118439.88;5093047;28;20026;-68
2023/07/04 00:47:12;;;;;;;19.70;3.85;;;;;;;-143.48;100.00;118439.88;5075163;28;20437;-69
2023/07/04 00:49:48;;;;;;;18.53;3.83;;;;;;;-143.48;100.00;118439.88;5093005;28;20425;-68
2023/07/04 00:52:23;;;;;;;17.00;3.17;;;;;;;-143.48;100.00;118439.88;5092944;28;20274;-68
2023/07/04 00:54:52;;;;;;;19.00;3.33;;;;;;;-143.48;100.00;118439.88;5078416;28;20020;-67
2023/07/04 00:57:20;;;;;;;15.25;3.33;;;;;;;-143.48;100.00;118439.88;5097220;28;20035;-68
2023/07/04 00:59:48;;;;;;;15.90;3.40;;;;;;;-143.48;100.00;118439.88;5096964;28;20020;-67
2023/07/04 01:02:17;;;;;;;16.42;3.72;;;;;;;-143.48;100.00;118439.88;5096786;28;20479;-67
2023/07/04 01:04:44;;;;;;;14.38;3.17;;;;;;;-143.48;100.00;118439.88;5096816;28;20414;-67
2023/07/04 01:07:18;;;;;;;21.83;3.30;;;;;;;-143.48;100.00;118439.88;5096747;28;20123;-67
2023/07/04 01:09:50;;;;;;;18.15;3.17;;;;;;;-143.48;100.00;118439.88;5096783;28;20074;-68
2023/07/04 01:12:18;;;;;;;14.23;2.55;;;;;;;-143.48;100.00;118439.88;5096719;28;20356;-69
2023/07/04 01:14:44;;;;;;;11.48;3.03;;;;;;;-143.48;100.00;118439.88;5096873;28;20016;-68
2023/07/04 01:17:09;;;;;;;9.43;2.17;;;;;;;-143.48;100.00;118439.88;5096582;28;20024;-67
2023/07/04 01:19:38;;;;;;;13.70;2.25;;;;;;;-143.48;100.00;118439.88;5096585;28;20024;-68
2023/07/04 01:22:16;;;;;;;8.25;2.05;;;;;;;-143.48;100.00;118439.88;5096513;28;20099;-68
2023/07/04 01:24:53;;;;;;;5.07;1.70;;;;;;;-143.48;100.00;118439.88;5078899;28;20036;-68
2023/07/04 01:27:21;;;;;;;9.48;2.05;;;;;;;-143.48;100.00;118439.88;5096416;28;20016;-68
2023/07/04 01:29:47;;;;;;;5.78;1.70;;;;;;;-143.48;100.00;118439.88;5096435;28;20027;-67
2023/07/04 01:32:13;;;;;;;6.20;1.80;;;;;;;-143.48;100.00;118439.88;5096302;28;20468;-68
2023/07/04 01:34:39;;;;;;;6.75;1.70;;;;;;;-143.48;100.00;118439.88;5078266;28;20036;-67
2023/07/04 01:37:05;;;;;;;6.55;1.73;;;;;;;-143.48;100.00;118439.88;5096367;28;20384;-68
2023/07/04 01:39:30;;;;;;;7.97;2.10;;;;;;;-143.48;100.00;118439.88;5078078;28;20035;-67
2023/07/04 01:41:56;;;;;;;6.60;1.80;;;;;;;-143.48;100.00;118439.88;5096163;28;20031;-68
2023/07/04 01:44:24;;;;;;;7.50;1.80;;;;;;;-143.48;100.00;118439.88;5077962;28;20031;-67
2023/07/04 01:46:50;;;;;;;9.80;1.92;;;;;;;-143.48;100.00;118439.88;5096122;28;20475;-67
2023/07/04 01:49:17;;;;;;;10.52;2.03;;;;;;;-143.48;100.00;118439.88;5096197;28;20020;-67
2023/07/04 01:51:43;;;;;;;14.00;2.15;;;;;;;-143.48;100.00;118439.88;5096014;28;20446;-68
2023/07/04 01:54:10;;;;;;;9.15;2.72;;;;;;;-143.48;100.00;118439.88;5077642;28;20111;-68
2023/07/04 01:56:37;;;;;;;10.90;2.55;;;;;;;-143.48;100.00;118439.88;5095929;28;20031;-68
2023/07/04 01:59:03;;;;;;;10.80;2.33;;;;;;;-143.48;100.00;118439.88;5095906;28;20432;-68
2023/07/04 02:01:28;;;;;;;9.27;2.25;;;;;;;-143.48;100.00;118439.88;5095694;28;20158;-68
2023/07/04 02:03:54;;;;;;;14.32;2.28;;;;;;;-143.48;100.00;118439.88;5077221;28;20020;-68
2023/07/04 02:06:19;;;;;;;10.15;2.20;;;;;;;-143.48;100.00;118439.88;5077481;28;20379;-68
2023/07/04 02:08:45;;;;;;;10.02;2.08;;;;;;;-143.48;100.00;118439.88;5095639;28;20073;-68
2023/07/04 02:11:12;;;;;;;10.10;2.20;;;;;;;-143.48;100.00;118439.88;5095591;28;20540;-68
2023/07/04 02:13:37;;;;;;;10.38;2.15;;;;;;;-143.48;100.00;118439.88;5095608;28;20032;-67
2023/07/04 02:16:02;;;;;;;11.55;2.40;;;;;;;-143.48;100.00;118439.88;5095576;28;20394;-68
2023/07/04 02:18:28;;;;;;;14.10;2.47;;;;;;;-143.48;100.00;118439.88;5095661;28;20024;-71
2023/07/04 02:20:53;;;;;;;10.63;2.08;;;;;;;-143.48;100.00;118439.88;5095318;28;20039;-67
2023/07/04 02:23:19;;;;;;;7.18;2.17;;;;;;;-143.48;100.00;118439.88;5095378;28;20047;-69
2023/07/04 02:25:44;;;;;;;11.18;2.10;;;;;;;-143.48;100.00;118439.88;5095317;28;20460;-68
2023/07/04 02:28:10;;;;;;;14.32;2.28;;;;;;;-143.48;100.00;118439.88;5095396;28;20032;-68
2023/07/04 02:30:37;;;;;;;10.85;2.22;;;;;;;-143.48;100.00;118439.88;5095393;28;20016;-67
2023/07/04 02:33:03;;;;;;;8.60;2.10;;;;;;;-143.48;100.00;118439.88;5095292;28;20051;-67
2023/07/04 02:35:29;;;;;;;8.68;2.10;;;;;;;-143.48;100.00;118439.88;5095183;28;20028;-68
2023/07/04 02:37:55;;;;;;;4.53;1.90;;;;;;;-143.48;100.00;118439.88;5095175;28;20024;-68
2023/07/04 02:40:20;;;;;;;12.10;2.30;;;;;;;-143.48;100.00;118439.88;5076847;28;20073;-68
2023/07/04 02:42:46;;;;;;;15.55;3.03;;;;;;;-143.48;100.00;118439.88;5094881;28;20031;-69
2023/07/04 02:45:11;;;;;;;15.10;2.30;;;;;;;-143.48;100.00;118439.88;5094902;28;20024;-68
2023/07/04 02:47:37;;;;;;;9.80;2.40;;;;;;;-143.48;100.00;118439.88;5094935;28;20028;-68
2023/07/04 02:50:02;;;;;;;7.05;1.90;;;;;;;-143.48;100.00;118439.88;5094925;28;20067;-68
2023/07/04 02:52:30;;;;;;;9.75;2.45;;;;;;;-143.48;100.00;118439.88;5094894;28;20021;-68
2023/07/04 02:54:55;;;;;;;7.65;2.17;;;;;;;-143.48;100.00;118439.88;5076631;28;20016;-67
2023/07/04 02:57:22;;;;;;;9.52;2.00;;;;;;;-143.48;100.00;118439.88;5094690;28;20031;-67
2023/07/04 02:59:47;;;;;;;8.65;2.10;;;;;;;-143.48;100.00;118439.88;5094711;28;20035;-67
2023/07/04 03:02:13;;;;;;;12.90;2.47;;;;;;;-143.48;100.00;118439.88;5094537;28;20028;-68
2023/07/04 03:04:38;;;;;;;13.32;2.13;;;;;;;-143.48;100.00;118439.88;5094594;28;20027;-68
2023/07/04 03:07:04;;;;;;;10.27;2.50;;;;;;;-143.48;100.00;118439.88;5094363;28;20044;-68
2023/07/04 03:09:29;;;;;;;9.38;2.28;;;;;;;-143.48;100.00;118439.88;5094477;28;20067;-67
2023/07/04 03:11:55;;;;;;;7.93;1.90;;;;;;;-143.48;100.00;118439.88;5076272;28;20103;-67
2023/07/04 03:14:21;;;;;;;7.35;1.80;;;;;;;-143.48;100.00;118439.88;5094393;28;20035;-68
2023/07/04 03:16:46;;;;;;;6.63;1.92;;;;;;;-143.48;100.00;118439.88;5093663;28;20106;-68
2023/07/04 03:19:11;;;;;;;8.93;2.10;;;;;;;-143.48;100.00;118439.88;5076083;28;20024;-67
2023/07/04 03:21:37;;;;;;;5.63;2.00;;;;;;;-143.48;99.89;118439.88;5094295;28;20028;-68
2023/07/04 03:24:02;;;;;;;6.32;1.83;;;;;;;-143.48;100.00;118439.88;5094242;28;20024;-68
2023/07/04 03:26:28;;;;;;;11.00;2.38;;;;;;;-143.48;100.00;118439.88;5094137;28;20035;-68
2023/07/04 03:28:53;;;;;;;11.73;2.22;;;;;;;-143.48;100.00;118439.88;5094161;28;20016;-68
2023/07/04 03:31:18;;;;;;;11.65;2.10;;;;;;;-143.48;100.00;118439.88;5075957;28;20456;-68
2023/07/04 03:33:44;;;;;;;7.00;1.92;;;;;;;-143.48;100.00;118439.88;5094089;28;20467;-68
2023/07/04 03:36:10;;;;;;;7.20;1.95;;;;;;;-143.48;99.31;118439.88;5094049;28;20053;-68
2023/07/04 03:38:35;;;;;;;8.23;1.80;;;;;;;-143.48;100.00;118439.88;5094036;28;20023;-68
2023/07/04 03:41:00;;;;;;;6.60;1.95;;;;;;;-143.48;99.64;118439.88;5075723;28;20024;-68
2023/07/04 03:43:26;;;;;;;5.68;2.20;;;;;;;-143.48;100.00;118439.88;5075801;28;20152;-68
2023/07/04 03:45:51;;;;;;;8.07;1.95;;;;;;;-143.48;100.00;118439.88;5093956;28;20394;-68
2023/07/04 03:48:17;;;;;;;9.82;2.60;;;;;;;-143.48;99.70;118439.88;5093879;28;20063;-68
2023/07/04 03:50:43;;;;;;;14.60;2.50;;;;;;;-143.48;99.22;118439.88;5075575;28;20023;-68
2023/07/04 03:53:08;;;;;;;4.63;1.83;;;;;;;-143.48;98.48;118439.88;5075456;28;20031;-67
2023/07/04 03:55:34;;;;;;;7.18;1.98;;;;;;;-143.48;98.22;118439.88;5093709;28;20455;-68
2023/07/04 03:57:59;;;;;;;7.80;2.20;;;;;;;-143.48;98.03;118439.88;5075537;28;20383;-67
2023/07/04 04:00:25;;;;;;;7.07;2.25;;;;;;;-143.48;97.91;118439.88;5093734;28;20048;-67
2023/07/04 04:02:50;;;;;;;7.68;2.08;;;;;;;-143.48;99.32;118439.88;5093517;28;20383;-68
2023/07/04 04:05:16;;;;;;;6.50;1.90;;;;;;;-143.48;97.92;118439.88;5093698;28;20030;-68
2023/07/04 04:07:41;;;;;;;9.30;2.15;;;;;;;-143.48;96.73;118439.88;5093330;28;20052;-67
2023/07/04 04:10:07;;;;;;;9.55;2.13;;;;;;;-143.48;96.87;118439.88;5093522;28;20043;-67
2023/07/04 04:12:32;;;;;;;7.30;1.70;;;;;;;-143.48;96.65;118439.88;5093430;28;20479;-67
2023/07/04 04:14:57;;;;;;;11.10;2.13;;;;;;;-143.48;96.91;118439.88;5093390;28;20088;-67
2023/07/04 04:17:23;;;;;;;13.10;1.95;;;;;;;-143.48;97.47;118439.88;5075277;28;20063;-68
2023/07/04 04:19:48;;;;;;;12.85;2.10;;;;;;;-143.48;97.47;118439.88;5075223;28;20048;-67
2023/07/04 04:22:14;;;;;;;9.32;2.10;;;;;;;-143.48;97.69;118439.88;5075153;28;20027;-68
2023/07/04 04:24:40;;;;;;;6.40;1.73;;;;;;;-143.48;97.43;118439.88;5075938;28;20027;-69
2023/07/04 04:27:08;;;;;;;10.20;2.22;;;;;;;-143.48;98.73;118439.88;5093405;28;20081;-68
2023/07/04 04:29:34;;;;;;;9.57;2.10;;;;;;;-143.48;96.79;118439.88;5093367;28;20490;-68
2023/07/04 04:32:00;;;;;;;5.75;1.80;;;;;;;-143.48;96.30;118439.88;5093329;28;20487;-68
2023/07/04 04:34:26;;;;;;;5.97;2.10;;;;;;;-143.48;96.80;118439.88;5093345;28;20027;-69
2023/07/04 04:36:51;;;;;;;6.47;2.00;;;;;;;-143.48;96.98;118439.88;5074994;28;20251;-68
2023/07/04 04:39:17;;;;;;;9.38;2.17;;;;;;;-143.48;97.29;118439.88;5093170;28;20020;-67
2023/07/04 04:41:42;;;;;;;8.85;2.13;;;;;;;-143.48;97.75;118439.88;5093051;28;20081;-68
2023/07/04 04:44:08;;;;;;;12.73;2.78;;;;;;;-143.48;97.15;118439.88;5075578;28;20481;-68
2023/07/04 04:46:34;;;;;;;8.57;2.63;;;;;;;-143.48;97.10;118439.88;5093071;28;20016;-68
2023/07/04 04:49:03;;;;;;;9.00;2.35;;;;;;;-143.48;96.65;118439.88;5092823;28;20391;-68
2023/07/04 04:51:32;;;;;;;12.07;2.38;;;;;;;-143.48;97.07;118439.88;5093199;28;20104;-68
2023/07/04 04:53:58;;;;;;;9.45;2.42;;;;;;;-143.48;97.35;118439.88;5076185;28;20038;-68
2023/07/04 04:56:25;;;;;;;10.73;3.08;;;;;;;-143.48;95.27;118439.88;5075389;28;20016;-68
2023/07/04 04:58:50;;;;;;;11.82;2.42;;;;;;;-143.48;94.07;118439.88;5074794;28;20035;-67
2023/07/04 05:01:22;;;;;;;9.02;2.53;;;;;;;-143.48;93.50;118439.88;5093004;28;20476;-67
2023/07/04 05:03:56;;;;;;;10.00;3.17;;;;;;;-143.48;93.03;118439.88;5076219;28;20039;-67
2023/07/04 05:06:26;;;;;;;11.88;2.55;;;;;;;-143.48;93.79;118439.88;5074709;28;20164;-68
2023/07/04 05:08:52;;;;;;;6.15;2.13;;;;;;;-143.48;92.30;118439.88;5092668;28;20048;-68
2023/07/04 05:11:18;;;;;;;9.82;2.60;;;;;;;-143.48;91.51;118439.88;5074515;28;20020;-68
2023/07/04 05:13:47;;;;;;;8.82;2.25;;;;;;;-143.48;90.31;118439.88;5074513;28;20395;-68
2023/07/04 05:16:15;;;;;;;9.93;2.05;;;;;;;-143.48;89.21;118439.88;5092659;28;20020;-68
2023/07/04 05:18:42;;;;;;;14.75;2.72;;;;;;;-143.48;89.87;118439.88;5074469;28;20058;-67
2023/07/04 05:21:13;;;;;;;14.50;2.38;;;;;;;-143.48;88.18;118439.88;5092317;28;20036;-67
2023/07/04 05:23:41;;;;;;;11.77;2.45;;;;;;;-143.48;88.27;118439.88;5092555;28;20031;-67
2023/07/04 05:26:12;;;;;;;13.40;2.28;;;;;;;-143.48;88.31;118439.88;5074744;28;20031;-68
2023/07/04 05:28:38;;;;;;;8.25;1.90;;;;;;;-143.48;86.31;118439.88;5092401;28;20020;-68
2023/07/04 05:31:15;;;;;;;12.38;2.40;;;;;;;-143.48;85.13;118439.88;5093143;28;20020;-68
2023/07/04 05:33:40;;;;;;;13.30;2.50;;;;;;;-143.48;84.80;118439.88;5074302;28;20055;-68
2023/07/04 05:36:18;;;;;;;10.13;2.60;;;;;;;-143.48;83.38;118439.88;5092440;28;20024;-68
2023/07/04 05:38:46;;;;;;;12.15;2.58;;;;;;;-143.48;81.92;118439.88;5092312;28;20525;-68
2023/07/04 05:41:14;;;;;;;14.43;2.70;;;;;;;-143.48;81.27;118439.88;5095960;28;20028;-68
2023/07/04 05:43:40;;;;;;;8.68;1.92;;;;;;;-143.48;74.36;118439.88;5096171;28;20019;-67
2023/07/04 05:46:07;;;;;;;14.38;2.47;;;;;;;-143.48;68.58;118439.88;5096156;28;20052;-67
2023/07/04 05:48:36;;;;;;;10.40;2.63;;;;;;;-143.48;61.12;118439.88;5077832;28;20024;-67
2023/07/04 05:51:04;;;;;;;10.93;2.53;;;;;;;-143.48;59.68;118439.88;5077846;28;20082;-68
2023/07/04 05:53:32;;;;;;;11.05;2.60;;;;;;;-143.48;56.97;118439.88;5095895;28;20024;-68
2023/07/04 05:56:12;;;;;;;9.10;2.20;;;;;;;-143.48;57.71;118439.88;5095852;28;20073;-68
2023/07/04 05:58:39;;;;;;;8.07;2.20;;;;;;;-143.48;56.52;118439.88;5095943;28;20548;-68
2023/07/04 06:01:09;;;;;;;8.13;2.30;;;;;;;-143.48;59.79;118439.88;5077733;28;20506;-68
2023/07/04 06:03:35;;;;;;;15.45;2.42;;;;;;;-143.48;57.40;118439.88;5077599;28;20028;-68
2023/07/04 06:06:05;;;;;;;11.98;2.47;;;;;;;-143.48;51.94;118439.88;5095618;28;20024;-68
2023/07/04 06:08:32;;;;;;;9.35;2.25;;;;;;;-143.48;50.48;118439.88;5096136;28;20040;-69
2023/07/04 06:11:03;;;;;;;8.40;1.98;;;;;;;-143.48;50.23;118439.88;5095663;28;20077;-69
2023/07/04 06:13:29;;;;;;;15.95;2.47;;;;;;;-143.48;53.30;118439.88;5095744;28;20020;-69
2023/07/04 06:15:56;;;;;;;12.07;2.40;;;;;;;-143.48;58.69;118439.88;5095609;28;20024;-69
2023/07/04 06:18:22;;;;;;;8.20;2.50;;;;;;;-143.48;54.44;118439.88;5077673;28;20024;-69
2023/07/04 06:20:47;;;;;;;14.30;2.70;;;;;;;-143.48;58.46;118439.88;5095629;28;20421;-68
2023/07/04 06:23:13;;;;;;;15.55;2.33;;;;;;;-143.48;57.17;118439.88;5095199;28;20023;-69
2023/07/04 06:25:38;;;;;;;15.27;2.35;;;;;;;-143.48;58.37;118439.88;5094764;28;20023;-69
2023/07/04 06:28:04;;;;;;;11.90;2.65;;;;;;;-143.48;62.76;118439.88;5094784;28;20115;-67
2023/07/04 06:30:32;;;;;;;10.77;2.53;;;;;;;-143.48;57.83;118439.88;5094843;28;20565;-68
2023/07/04 06:32:57;;;;;;;10.85;2.25;;;;;;;-143.48;59.50;118439.88;5094742;28;20099;-68
2023/07/04 06:35:23;;;;;;;12.52;2.35;;;;;;;-143.48;63.18;118439.88;5094550;28;20501;-68
2023/07/04 06:37:48;;;;;;;13.18;2.42;;;;;;;-143.48;61.21;118439.88;5094650;28;20030;-68
2023/07/04 06:40:14;;;;;;;15.93;2.47;;;;;;;-143.48;54.09;118439.88;5094971;28;20023;-68
2023/07/04 06:42:40;;;;;;;15.48;2.90;;;;;;;-143.48;58.50;118439.88;5094994;28;20032;-68
2023/07/04 06:45:06;;;;;;;12.48;2.47;;;;;;;-143.48;63.50;118439.88;5095016;28;20024;-69
2023/07/04 06:47:31;;;;;;;11.25;2.25;;;;;;;-143.48;62.69;118439.88;5095012;28;20026;-68
2023/07/04 06:49:56;;;;;;;13.25;2.60;;;;;;;-143.48;65.29;118439.88;5076418;28;20020;-68
2023/07/04 06:52:22;;;;;;;15.68;2.00;;;;;;;-143.48;66.83;118439.88;5093798;28;20023;-67
2023/07/04 06:54:49;;;;;;;13.80;2.67;;;;;;;-143.48;59.94;118439.88;5076799;28;20035;-68
2023/07/04 06:57:15;;;;;;;10.38;2.33;;;;;;;-143.48;58.37;118439.88;5076568;28;20020;-68
2023/07/04 06:59:44;;;;;;;11.20;2.40;;;;;;;-143.48;57.61;118439.88;5094529;28;20027;-68
2023/07/04 07:02:09;;;;;;;10.38;2.13;;;;;;;-143.48;58.86;118439.88;5094505;28;20028;-68
2023/07/04 07:04:35;;;;;;;17.02;2.75;;;;;;;-143.48;57.89;118439.88;5094720;28;20091;-68
2023/07/04 07:07:00;;;;;;;12.65;2.53;;;;;;;-143.48;57.20;118439.88;5094488;28;20075;-68
2023/07/04 07:09:26;;;;;;;13.90;2.65;;;;;;;-143.48;58.82;118439.88;5076210;28;20023;-67
2023/07/04 07:11:52;;;;;;;16.65;3.00;;;;;;;-143.48;61.12;118439.88;5094344;28;20043;-68
2023/07/04 07:14:17;;;;;;;12.15;2.42;;;;;;;-143.48;62.04;118439.88;5094399;28;20482;-68
2023/07/04 07:16:42;;;;;;;12.05;2.65;;;;;;;-143.48;65.21;118439.88;5094463;28;20510;-68
2023/07/04 07:19:08;;;;;;;10.77;2.50;;;;;;;-143.48;67.71;118439.88;5094079;28;20394;-69
2023/07/04 07:21:33;;;;;;;11.63;2.60;;;;;;;-143.48;70.01;118439.88;5094296;28;20031;-67
2023/07/04 07:24:00;;;;;;;16.90;2.58;;;;;;;-143.48;70.70;118439.88;5094214;28;20503;-68
2023/07/04 07:26:27;;;;;;;16.70;2.60;;;;;;;-143.48;72.06;118439.88;5094256;28;20028;-68
2023/07/04 07:28:52;;;;;;;10.35;2.58;;;;;;;-143.48;73.20;118439.88;5075667;28;20115;-68
2023/07/04 07:31:20;;;;;;;12.07;2.35;;;;;;;-143.48;73.32;118439.88;5094168;28;20103;-68
2023/07/04 07:33:48;;;;;;;16.67;2.65;;;;;;;-143.48;72.78;118439.88;5075847;28;20391;-67
2023/07/04 07:36:38;;;;;;;12.43;2.42;;;;;;;-143.48;73.51;118439.88;5075962;28;20061;-68
2023/07/04 07:39:06;;;;;;;13.13;2.20;;;;;;;-143.48;72.94;118439.88;5093975;28;20430;-68
2023/07/04 07:41:36;;;;;;;15.50;2.75;;;;;;;-143.48;75.18;118439.88;5093885;28;20030;-68
2023/07/04 07:44:03;;;;;;;10.57;2.47;;;;;;;-143.48;72.44;118439.88;5093864;28;20088;-69
2023/07/04 07:46:28;;;;;;;11.32;2.92;;;;;;;-143.48;75.17;118439.88;5075680;28;20026;-69
2023/07/04 07:48:55;;;;;;;15.45;2.78;;;;;;;-143.48;68.91;118439.88;5093704;28;20471;-69
2023/07/04 07:51:20;;;;;;;15.23;2.92;;;;;;;-143.48;67.78;118439.88;5093814;28;20024;-68
2023/07/04 07:53:47;;;;;;;10.35;2.70;;;;;;;-143.48;63.57;118439.88;5075571;28;20161;-68
2023/07/04 07:56:15;;;;;;;18.02;2.83;;;;;;;-143.48;64.60;118439.88;5092794;28;20395;-66
2023/07/04 07:58:41;;;;;;;15.40;2.92;;;;;;;-143.48;64.27;118439.88;5093876;28;20380;-66
2023/07/04 08:01:18;;;;;;;13.48;3.13;;;;;;;-143.48;64.41;118439.88;5094299;28;20024;-66
2023/07/04 08:03:44;;;;;;;15.10;2.70;;;;;;;-143.48;64.06;118439.88;5075858;28;20150;-67
2023/07/04 08:06:20;;;;;;;15.00;2.97;;;;;;;-143.48;64.74;118439.88;5075592;28;20046;-66
2023/07/04 08:08:46;;;;;;;14.05;2.85;;;;;;;-143.48;66.04;118439.88;5093763;28;20075;-65
2023/07/04 08:11:15;;;;;;;9.90;2.60;;;;;;;-143.48;66.27;118439.88;5094030;28;20078;-65
2023/07/04 08:13:41;;;;;;;14.68;2.40;;;;;;;-143.48;67.17;118439.88;5093941;28;20027;-65
2023/07/04 08:16:06;;;;;;;12.98;2.70;;;;;;;-143.48;67.75;118439.88;5075492;28;20024;-66
2023/07/04 08:18:32;;;;;;;13.68;2.97;;;;;;;-143.48;66.69;118439.88;5093479;28;20030;-65
2023/07/04 08:21:00;;;;;;;10.95;2.70;;;;;;;-143.48;66.53;118439.88;5093673;28;20106;-67
2023/07/04 08:23:25;;;;;;;14.85;2.78;;;;;;;-143.48;68.48;118439.88;5093555;28;20368;-65
2023/07/04 08:25:51;;;;;;;18.02;2.60;;;;;;;-143.48;68.17;118439.88;5075468;28;20077;-65
2023/07/04 08:28:17;;;;;;;12.75;2.70;;;;;;;-143.48;66.04;118439.88;5093386;28;20470;-68
2023/07/04 08:30:43;;;;;;;13.32;2.40;;;;;;;-143.48;63.02;118439.88;5093117;28;20107;-66
2023/07/04 08:33:08;;;;;;;13.25;2.92;;;;;;;-143.48;56.41;118439.88;5074972;28;20115;-65
2023/07/04 08:35:33;;;;;;;16.77;2.67;;;;;;;-143.48;53.93;118439.88;5092999;28;20417;-67
2023/07/04 08:37:59;;;;;;;13.30;2.75;;;;;;;-143.48;53.40;118439.88;5074975;28;20434;-65
2023/07/04 08:40:24;;;;;;;10.98;2.45;;;;;;;-143.48;56.65;118439.88;5093035;28;20383;-66
2023/07/04 08:42:49;;;;;;;18.20;2.67;;;;;;;-143.48;55.88;118439.88;5074893;28;20077;-67
2023/07/04 08:45:26;;;;;;;10.20;2.08;;;;;;;-143.48;55.97;118439.88;5092873;28;20028;-67
2023/07/04 08:47:54;;;;;;;13.98;2.58;;;;;;;-143.48;56.95;118439.88;5092950;28;20471;-65
2023/07/04 08:50:30;;;;;;;16.13;2.67;;;;;;;-143.48;57.22;118439.88;5092939;28;20020;-67
2023/07/04 08:53:11;;;;;;;14.77;2.72;;;;;;;-143.48;55.38;118439.88;5093040;28;20020;-66
2023/07/04 08:55:45;;;;;;;12.23;2.55;;;;;;;-143.48;56.96;118439.88;5074872;28;20020;-66
2023/07/04 08:58:15;;;;;;;12.15;2.42;;;;;;;-143.48;58.55;118439.88;5092770;28;20028;-66
2023/07/04 09:00:44;;;;;;;15.27;2.35;;;;;;;-143.48;59.85;118439.88;5092849;28;20031;-66
2023/07/04 09:03:39;;;;;;;16.67;3.00;;;;;;;-143.48;60.00;118439.88;5092689;28;20028;-66
2023/07/04 09:06:48;;;;;;;13.93;2.70;;;;;;;-143.48;66.33;118439.88;5093033;28;20028;-65
2023/07/04 09:09:29;;;;;;;21.80;3.35;;;;;;;-143.48;62.70;118439.88;5093116;28;20119;-65
2023/07/04 09:11:55;;;;;;;11.95;2.45;;;;;;;-143.48;63.41;118439.88;5092858;28;20096;-66
2023/07/04 09:14:25;;;;;;;14.02;2.72;;;;;;;-143.48;60.95;118439.88;5093553;28;20114;-65
2023/07/04 09:16:52;;;;;;;9.20;2.25;;;;;;;-143.48;63.06;118439.88;5078387;28;20384;-66
2023/07/04 09:19:20;;;;;;;15.77;2.60;;;;;;;-143.48;68.54;118439.88;5078277;28;20020;-65
2023/07/04 09:21:46;;;;;;;14.27;2.70;;;;;;;-143.48;74.26;118439.88;5078375;28;20030;-65
2023/07/04 09:24:12;;;;;;;13.88;2.70;;;;;;;-143.48;77.60;118439.88;5096588;28;20028;-65
2023/07/04 09:26:46;;;;;;;13.82;2.58;;;;;;;-143.48;83.90;118439.88;5096563;28;20035;-65
2023/07/04 09:29:17;;;;;;;14.35;2.90;;;;;;;-143.48;87.71;118439.88;5078240;28;20028;-64
2023/07/04 09:31:46;;;;;;;10.75;2.22;;;;;;;-143.48;87.42;118439.88;5096405;28;20432;-65
2023/07/04 09:34:21;;;;;;;10.38;2.38;;;;;;;-143.48;89.78;118439.88;5096282;28;20127;-65
2023/07/04 09:36:47;;;;;;;12.82;2.92;;;;;;;-143.48;91.48;118439.88;5096139;28;20055;-64
2023/07/04 09:39:13;;;;;;;15.95;2.88;;;;;;;-143.48;91.33;118439.88;5096154;28;20434;-64
2023/07/04 09:41:40;;;;;;;12.85;2.90;;;;;;;-143.48;92.52;118439.88;5095615;28;20387;-64
2023/07/04 09:44:18;;;;;;;14.32;2.72;;;;;;;-143.48;93.89;118439.88;5077486;28;20020;-65
2023/07/04 09:46:49;;;;;;;11.30;2.67;;;;;;;-143.48;92.50;118439.88;5095539;28;20024;-64
2023/07/04 09:49:27;;;;;;;12.93;2.90;;;;;;;-143.48;94.31;118439.88;5095466;28;20479;-65
2023/07/04 09:52:05;;;;;;;13.52;3.00;;;;;;;-143.48;94.06;118439.88;5095577;28;20028;-64
2023/07/04 09:54:32;;;;;;;14.35;2.53;;;;;;;-143.48;94.78;118439.88;5077423;28;20020;-64
2023/07/04 09:57:19;;;;;;;13.93;2.78;;;;;;;-143.48;95.60;118439.88;5095796;28;20527;-65
2023/07/04 09:59:45;;;;;;;14.57;3.17;;;;;;;-143.48;96.96;118439.88;5077481;28;20020;-65
2023/07/04 10:02:17;;;;;;;15.95;3.28;;;;;;;-143.48;96.77;118439.88;5077104;28;20047;-65
2023/07/04 10:04:46;;;;;;;11.05;2.38;;;;;;;-143.48;97.88;118439.88;5095715;28;20507;-65
2023/07/04 10:07:15;;;;;;;14.77;2.38;;;;;;;-143.48;95.54;118439.88;5095674;28;20043;-65
2023/07/04 10:09:50;;;;;;;17.23;3.65;;;;;;;-143.48;96.36;118439.88;5095667;28;20565;-67
2023/07/04 10:12:17;;;;;;;10.80;2.65;;;;;;;-143.48;94.84;118439.88;5077434;28;20016;-66
2023/07/04 10:14:49;;;;;;;12.68;2.60;;;;;;;-143.48;95.72;118439.88;5095730;28;20034;-66
2023/07/04 10:17:35;;;;;;;11.20;2.72;;;;;;;-143.48;94.10;118439.88;5077361;28;20020;-65
2023/07/04 10:20:10;;;;;;;13.13;2.90;;;;;;;-143.48;92.66;118439.88;5095968;28;20032;-65
2023/07/04 10:22:38;;;;;;;11.65;2.67;;;;;;;-143.48;90.71;118439.88;5077919;28;20020;-65
2023/07/04 10:25:17;;;;;;;8.88;2.38;;;;;;;-143.48;91.20;118439.88;5095636;28;20036;-64
2023/07/04 10:27:47;;;;;;;12.20;2.72;;;;;;;-143.48;89.20;118439.88;5096496;28;20035;-65
2023/07/04 10:30:20;;;;;;;12.27;2.90;;;;;;;-143.48;88.09;118439.88;5096912;28;20153;-64
2023/07/04 10:33:00;;;;;;;11.55;2.80;;;;;;;-143.48;84.62;118439.88;5096646;28;20039;-65
2023/07/04 10:35:30;;;;;;;11.02;2.72;;;;;;;-143.48;84.10;118439.88;5095301;28;20024;-64
2023/07/04 10:38:03;;;;;;;15.10;2.63;;;;;;;-143.48;86.97;118439.88;5095832;28;20108;-64
2023/07/04 10:40:29;;;;;;;14.43;2.35;;;;;;;-143.48;82.65;118439.88;5095490;28;20028;-65
2023/07/04 10:43:02;;;;;;;14.52;2.63;;;;;;;-143.48;84.01;118439.88;5077548;28;20016;-64
2023/07/04 10:45:29;;;;;;;12.32;2.63;;;;;;;-143.48;86.70;118439.88;5095615;28;20097;-64
2023/07/04 10:48:10;;;;;;;10.88;2.47;;;;;;;-143.48;86.00;118439.88;5096725;28;20020;-65
2023/07/04 10:50:50;;;;;;;11.00;2.67;;;;;;;-143.48;85.05;118439.88;5096361;28;20031;-65
2023/07/04 10:53:18;;;;;;;16.30;2.65;;;;;;;-143.48;87.87;118439.88;5077453;28;20427;-65
2023/07/04 10:55:48;;;;;;;14.50;2.70;;;;;;;-143.48;87.86;118439.88;5097738;28;20028;-64
2023/07/04 10:58:19;;;;;;;9.35;2.65;;;;;;;-143.48;83.51;118439.88;5096663;28;20028;-66
2023/07/04 11:00:58;;;;;;;11.15;2.63;;;;;;;-143.48;82.12;118439.88;5095215;28;20024;-64
2023/07/04 11:03:46;;;;;;;11.18;2.90;;;;;;;-143.48;81.50;118439.88;5077316;28;20024;-65
2023/07/04 11:06:23;;;;;;;15.68;3.35;;;;;;;-143.48;76.51;118439.88;5095387;28;20028;-68